Time;durP1;ratioP1;P1;durP2;ratioP2;P2;SDS_P1;SDS_P2;PMS_P1;PMS_P2;Temp;Humidity;BMP_temperature;BMP_pressure;BME280_temperature;BME280_humidity;BME280_pressure;Samples;Min_cycle;Max_cycle;Signal;HPM_P1;HPM_P2
2022/05/14 00:02:08;;;;;;;13.52;4.55;;;;;;;10.98;100.00;101798.13;10454448;28;20049;-66
2022/05/14 00:07:08;;;;;;;14.82;5.10;;;;;;;10.96;100.00;101792.00;10455914;28;20041;-66
2022/05/14 00:17:28;;;;;;;14.80;4.47;;;;;;;10.97;100.00;101788.16;10498726;28;20043;-66
2022/05/14 00:22:28;;;;;;;16.80;4.55;;;;;;;10.90;100.00;101779.16;10501245;28;20047;-66
2022/05/14 00:27:28;;;;;;;11.85;4.32;;;;;;;10.92;100.00;101778.94;10503498;28;20113;-67
2022/05/14 00:32:29;;;;;;;10.93;3.58;;;;;;;10.84;100.00;101785.59;10504552;28;20416;-66
2022/05/14 00:37:30;;;;;;;10.95;4.43;;;;;;;10.79;100.00;101785.44;10501764;28;20496;-66
2022/05/14 00:42:31;;;;;;;16.23;4.30;;;;;;;10.72;100.00;101785.56;10503171;28;20044;-65
2022/05/14 00:47:33;;;;;;;14.50;4.75;;;;;;;10.66;100.00;101787.31;10486747;28;20036;-66
2022/05/14 00:52:33;;;;;;;15.05;5.15;;;;;;;10.35;100.00;101755.31;10468996;28;20028;-65
2022/05/14 00:57:35;;;;;;;12.05;4.93;;;;;;;10.52;100.00;101807.84;10503937;28;20025;-66
2022/05/14 01:02:36;;;;;;;18.33;5.82;;;;;;;10.46;100.00;101808.78;10484873;28;20036;-65
2022/05/14 01:07:37;;;;;;;15.65;5.10;;;;;;;10.34;100.00;101803.19;10502040;28;20029;-65
2022/05/14 01:12:40;;;;;;;16.20;4.53;;;;;;;10.47;100.00;101816.78;10456569;28;20037;-65
2022/05/14 01:17:41;;;;;;;13.43;4.70;;;;;;;10.47;100.00;101800.28;10474597;28;20052;-66
2022/05/14 01:22:51;;;;;;;16.77;5.80;;;;;;;10.64;100.00;101817.00;10459630;28;20036;-65
2022/05/14 01:27:51;;;;;;;14.95;4.70;;;;;;;10.68;100.00;101812.72;10460955;28;20395;-65
2022/05/14 01:33:04;;;;;;;12.10;4.65;;;;;;;10.69;100.00;101814.41;10459887;28;20072;-66
2022/05/14 01:38:05;;;;;;;14.70;4.65;;;;;;;10.39;100.00;101756.53;10460642;28;20052;-65
2022/05/14 01:43:06;;;;;;;11.88;4.65;;;;;;;10.65;100.00;101802.16;10443141;28;20029;-65
2022/05/14 01:48:07;;;;;;;20.52;5.20;;;;;;;10.68;100.00;101807.19;10483347;28;20053;-66
2022/05/14 01:53:08;;;;;;;22.83;5.32;;;;;;;10.63;100.00;101809.81;10483210;28;20036;-66
2022/05/14 02:03:27;;;;;;;14.85;6.38;;;;;;;10.54;100.00;101811.19;10502078;28;20048;-66
2022/05/14 02:08:27;;;;;;;19.42;5.57;;;;;;;10.54;100.00;101813.13;10500832;28;20040;-65
2022/05/14 02:13:28;;;;;;;19.63;6.50;;;;;;;10.44;100.00;101798.00;10500196;28;20033;-65
2022/05/14 02:18:29;;;;;;;18.10;7.00;;;;;;;10.37;100.00;101802.72;10498837;28;20071;-65
2022/05/14 02:23:30;;;;;;;20.20;7.60;;;;;;;10.41;100.00;101814.13;10482248;28;20029;-65
2022/05/14 02:28:30;;;;;;;22.25;8.10;;;;;;;10.33;100.00;101815.28;10500708;28;20036;-65
2022/05/14 02:33:31;;;;;;;34.83;10.60;;;;;;;10.32;100.00;101812.78;10500567;28;20040;-65
2022/05/14 02:38:32;;;;;;;22.33;8.23;;;;;;;10.25;100.00;101819.16;10472330;28;20044;-65
2022/05/14 02:43:33;;;;;;;25.90;9.07;;;;;;;10.19;100.00;101820.06;10464637;28;20044;-65
2022/05/14 02:48:34;;;;;;;24.38;8.82;;;;;;;10.04;100.00;101833.34;10469099;28;20390;-65
2022/05/14 02:53:34;;;;;;;22.95;10.50;;;;;;;9.98;100.00;101826.00;10498670;28;20043;-65
2022/05/14 03:03:54;;;;;;;27.60;9.70;;;;;;;9.92;100.00;101836.00;10472305;28;20041;-65
2022/05/14 03:08:54;;;;;;;24.38;9.13;;;;;;;9.83;100.00;101838.19;10458173;28;20041;-65
2022/05/14 03:13:55;;;;;;;23.58;9.48;;;;;;;9.81;100.00;101845.81;10456665;28;20037;-66
2022/05/14 03:18:55;;;;;;;26.13;10.80;;;;;;;9.74;100.00;101845.06;10456628;28;20064;-65
2022/05/14 03:23:56;;;;;;;34.35;11.27;;;;;;;9.76;100.00;101848.44;10457201;28;20037;-66
2022/05/14 03:28:56;;;;;;;30.55;13.25;;;;;;;9.72;100.00;101852.69;10456735;28;20041;-65
2022/05/14 03:33:57;;;;;;;36.13;12.00;;;;;;;9.74;100.00;101846.97;10455968;28;20075;-66
2022/05/14 03:38:58;;;;;;;32.85;12.77;;;;;;;9.73;100.00;101850.78;10456736;28;20112;-65
2022/05/14 03:43:59;;;;;;;43.60;13.63;;;;;;;9.68;100.00;101854.22;10454934;28;20033;-65
2022/05/14 03:49:00;;;;;;;40.58;15.18;;;;;;;9.63;100.00;101863.13;10454295;28;20045;-65
2022/05/14 03:54:00;;;;;;;45.42;15.25;;;;;;;9.56;100.00;101858.75;10456237;28;20049;-63
2022/05/14 03:59:02;;;;;;;42.90;13.63;;;;;;;9.63;100.00;101876.03;10462085;28;20045;-65
2022/05/14 04:04:04;;;;;;;42.42;14.68;;;;;;;9.60;100.00;101870.97;10466763;28;20082;-65
2022/05/14 04:09:04;;;;;;;47.03;15.40;;;;;;;9.65;100.00;101874.75;10464123;28;20100;-65
2022/05/14 04:14:05;;;;;;;57.03;17.95;;;;;;;9.70;100.00;101869.41;10463696;28;20028;-66
2022/05/14 04:19:08;;;;;;;54.35;16.92;;;;;;;9.73;100.00;101879.09;10463556;28;20041;-66
2022/05/14 04:24:08;;;;;;;43.47;15.63;;;;;;;9.76;100.00;101875.09;10464063;28;20041;-75
2022/05/14 04:29:09;;;;;;;45.30;14.88;;;;;;;9.75;100.00;101889.91;10464638;28;20037;-76
2022/05/14 04:34:09;;;;;;;47.38;13.70;;;;;;;9.79;100.00;101896.63;10465439;28;20036;-75
2022/05/14 04:39:10;;;;;;;52.85;18.42;;;;;;;9.85;100.00;101902.06;10463122;28;20033;-75
2022/05/14 04:44:10;;;;;;;35.58;14.30;;;;;;;9.90;100.00;101896.75;10457819;28;20041;-76
2022/05/14 04:49:10;;;;;;;39.25;17.02;;;;;;;9.97;100.00;101901.34;10471594;28;20048;-75
2022/05/14 04:54:11;;;;;;;49.47;16.00;;;;;;;10.12;100.00;101906.50;10463581;28;20172;-76
2022/05/14 04:59:12;;;;;;;41.53;16.70;;;;;;;10.27;100.00;101915.22;10463520;28;20040;-75
2022/05/14 05:04:13;;;;;;;44.45;15.73;;;;;;;10.43;100.00;101930.38;10461805;28;20041;-78
2022/05/14 05:09:13;;;;;;;47.03;16.00;;;;;;;10.60;100.00;101925.94;10458796;28;20041;-76
2022/05/14 05:14:14;;;;;;;41.15;15.77;;;;;;;10.81;100.00;101924.66;10461863;28;20213;-75
2022/05/14 05:19:14;;;;;;;40.88;13.57;;;;;;;11.01;100.00;101921.63;10535985;28;20896;-76
2022/05/14 05:24:15;;;;;;;45.10;14.00;;;;;;;11.09;100.00;101929.59;10545369;28;20032;-75
2022/05/14 05:29:15;;;;;;;40.85;12.95;;;;;;;11.21;100.00;101931.56;10545462;28;20095;-75
2022/05/14 05:34:16;;;;;;;47.80;11.98;;;;;;;11.28;100.00;101930.38;10546033;28;20461;-76
2022/05/14 05:39:17;;;;;;;41.17;11.73;;;;;;;11.38;100.00;101940.03;10513749;28;20567;-76
2022/05/14 05:44:17;;;;;;;46.63;12.23;;;;;;;11.46;100.00;101934.19;10460912;28;20032;-77
2022/05/14 05:49:18;;;;;;;34.75;11.02;;;;;;;11.66;100.00;101953.22;10461197;28;20044;-76
2022/05/14 05:59:37;;;;;;;36.42;11.27;;;;;;;12.56;100.00;101949.34;10462357;28;20041;-74
2022/05/14 06:04:38;;;;;;;33.15;9.90;;;;;;;13.11;100.00;101962.72;10459687;28;20037;-75
2022/05/14 06:09:38;;;;;;;30.45;8.95;;;;;;;13.13;100.00;101927.38;10492764;28;20055;-75
2022/05/14 06:14:39;;;;;;;30.88;8.40;;;;;;;13.22;100.00;101962.94;10499019;28;20051;-76
2022/05/14 06:19:40;;;;;;;34.10;9.73;;;;;;;13.24;100.00;101964.38;10499179;28;20426;-75
2022/05/14 06:24:40;;;;;;;25.23;8.13;;;;;;;13.19;100.00;101968.94;10498097;28;20187;-76
2022/05/14 06:29:40;;;;;;;28.08;8.13;;;;;;;13.33;100.00;101981.44;10500919;28;20037;-74
2022/05/14 06:34:41;;;;;;;32.63;8.38;;;;;;;13.37;100.00;101982.63;10499633;28;20040;-75
2022/05/14 06:39:42;;;;;;;26.98;6.90;;;;;;;13.47;100.00;101985.59;10499237;28;20502;-75
2022/05/14 06:44:42;;;;;;;41.22;8.30;;;;;;;13.59;100.00;101995.78;10495302;28;20104;-74
2022/05/14 06:49:43;;;;;;;26.38;6.82;;;;;;;13.96;100.00;102000.91;10493668;28;20068;-74
2022/05/14 06:54:45;;;;;;;27.92;7.55;;;;;;;14.28;100.00;101992.84;10500001;28;20036;-74
2022/05/14 06:59:45;;;;;;;24.08;6.70;;;;;;;14.59;100.00;101999.72;10498564;28;20063;-73
2022/05/14 07:10:05;;;;;;;19.70;5.85;;;;;;;14.90;100.00;102017.69;10494221;28;20036;-74
2022/05/14 07:15:07;;;;;;;20.02;5.43;;;;;;;15.19;100.00;102009.16;10493599;28;20041;-75
2022/05/14 07:20:08;;;;;;;23.33;4.53;;;;;;;15.31;100.00;102000.72;10495442;28;20040;-75
2022/05/14 07:25:09;;;;;;;18.75;4.68;;;;;;;15.37;100.00;102008.00;10497016;28;20036;-75
2022/05/14 07:30:10;;;;;;;17.92;4.43;;;;;;;15.54;100.00;102019.03;10489494;28;20093;-75
2022/05/14 07:35:11;;;;;;;18.05;4.22;;;;;;;15.38;100.00;102017.16;10497280;28;20053;-74
2022/05/14 07:40:16;;;;;;;18.25;3.78;;;;;;;15.50;100.00;102015.97;10478231;28;20040;-77
2022/05/14 07:45:25;;;;;;;20.63;4.95;;;;;;;15.64;100.00;102012.75;10492833;28;20082;-75
2022/05/14 07:50:25;;;;;;;24.08;5.25;;;;;;;15.72;100.00;102026.22;10497139;28;20036;-74
2022/05/14 07:55:26;;;;;;;25.58;4.65;;;;;;;16.02;100.00;102017.38;10499591;28;20041;-74
2022/05/14 08:00:26;;;;;;;16.35;3.67;;;;;;;16.26;100.00;102012.28;10492328;28;20044;-76
2022/05/14 08:05:27;;;;;;;12.18;3.55;;;;;;;16.10;100.00;102018.81;10496974;28;20035;-74
2022/05/14 08:10:27;;;;;;;12.00;2.97;;;;;;;16.26;100.00;102001.16;10496215;28;20048;-75
2022/05/14 08:15:28;;;;;;;15.43;3.35;;;;;;;16.45;96.31;102009.09;10490099;28;20097;-75
2022/05/14 08:20:28;;;;;;;13.45;3.03;;;;;;;16.72;97.75;102021.00;10456672;28;20041;-75
2022/05/14 08:25:29;;;;;;;16.23;3.83;;;;;;;16.97;97.64;102015.88;10465383;28;20063;-77
2022/05/14 08:30:32;;;;;;;21.13;4.30;;;;;;;16.94;96.39;102022.81;10495717;28;20472;-79
2022/05/14 08:35:33;;;;;;;17.25;3.95;;;;;;;16.99;95.73;102014.50;10495309;28;20499;-76
2022/05/14 08:41:01;;;;;;;19.48;4.22;;;;;;;17.21;92.04;102028.25;10495824;28;20033;-76
2022/05/14 08:46:01;;;;;;;16.75;3.45;;;;;;;17.28;92.55;102016.84;10502595;28;20040;-76
2022/05/14 08:51:03;;;;;;;15.65;4.57;;;;;;;17.22;94.00;102035.50;10505138;28;20040;-75
2022/05/14 08:56:09;;;;;;;21.30;4.32;;;;;;;17.30;90.55;102025.75;10501686;28;20052;-80
2022/05/14 09:01:10;;;;;;;19.83;3.83;;;;;;;17.24;89.74;102027.72;10495447;28;20033;-76
2022/05/14 09:06:10;;;;;;;16.58;3.83;;;;;;;17.45;89.27;102028.63;10485572;28;20024;-76
2022/05/14 09:11:29;;;;;;;10.35;3.22;;;;;;;17.85;87.45;102018.72;10503649;28;20052;-75
2022/05/14 09:16:31;;;;;;;18.63;4.30;;;;;;;18.37;82.81;102016.00;10501877;28;20049;-78
2022/05/14 09:21:35;;;;;;;14.02;3.17;;;;;;;18.13;82.43;102022.13;10503254;28;20064;-76
2022/05/14 09:26:37;;;;;;;21.95;4.20;;;;;;;18.32;83.78;102037.19;10501694;28;20070;-77
2022/05/14 09:31:50;;;;;;;25.55;3.85;;;;;;;18.12;81.93;102031.59;10502567;28;20112;-76
2022/05/14 09:36:51;;;;;;;20.65;3.70;;;;;;;18.18;81.18;102030.50;10500696;28;20535;-73
2022/05/14 09:41:53;;;;;;;21.02;4.18;;;;;;;18.38;81.67;102026.03;10500351;28;20401;-74
2022/05/14 09:47:30;;;;;;;15.35;3.63;;;;;;;19.16;81.04;102045.16;10484820;28;20381;-74
2022/05/14 09:52:32;;;;;;;21.88;6.65;;;;;;;19.28;73.56;102025.31;10500962;28;20060;-74
2022/05/14 09:57:51;;;;;;;15.50;4.38;;;;;;;19.59;75.84;102041.94;10501237;28;20037;-77
2022/05/14 10:03:26;;;;;;;15.65;4.18;;;;;;;19.27;73.71;102032.88;10500701;28;20051;-76
2022/05/14 10:08:48;;;;;;;20.20;5.00;;;;;;;19.35;74.84;102049.03;10503538;28;20040;-74
2022/05/14 10:14:12;;;;;;;17.30;3.80;;;;;;;18.91;74.51;102054.44;10499386;28;20510;-77
2022/05/14 10:20:11;;;;;;;23.27;5.68;;;;;;;18.56;75.19;102042.19;10465378;28;20045;-73
2022/05/14 10:30:54;;;;;;;17.17;3.60;;;;;;;18.24;76.56;102050.84;10473458;28;20490;-78
2022/05/14 10:36:23;;;;;;;16.88;3.83;;;;;;;19.37;74.99;102045.97;10497245;28;20049;-77
2022/05/14 10:41:29;;;;;;;20.02;4.07;;;;;;;20.09;70.76;102038.03;10494164;28;20286;-75
2022/05/14 10:46:32;;;;;;;16.47;3.90;;;;;;;19.76;70.09;102034.03;10497230;28;20045;-74
2022/05/14 10:51:36;;;;;;;19.38;4.72;;;;;;;20.32;70.45;102038.44;10480105;28;20134;-74
2022/05/14 10:56:37;;;;;;;20.08;5.10;;;;;;;20.63;69.67;102033.44;10496685;28;20100;-76
2022/05/14 11:01:52;;;;;;;14.80;3.53;;;;;;;20.84;66.89;102030.44;10488721;28;20136;-73
2022/05/14 11:07:04;;;;;;;17.75;4.25;;;;;;;21.19;66.92;102039.53;10499201;28;20047;-75
2022/05/14 11:12:20;;;;;;;21.33;4.53;;;;;;;20.74;68.24;102034.97;10481895;28;20036;-73
2022/05/14 11:17:27;;;;;;;23.25;3.72;;;;;;;20.95;65.80;102030.00;10479230;28;20041;-74
2022/05/14 11:22:31;;;;;;;20.83;5.18;;;;;;;21.54;60.94;102013.91;10457651;28;20060;-74
2022/05/14 11:27:34;;;;;;;16.98;4.70;;;;;;;21.49;61.99;102029.97;10456229;28;20104;-75
2022/05/14 11:32:44;;;;;;;19.13;4.70;;;;;;;21.89;60.32;102036.13;10455237;28;20571;-74
2022/05/14 11:37:50;;;;;;;19.20;4.05;;;;;;;21.19;60.50;102033.94;10457808;28;20048;-76
2022/05/14 11:42:52;;;;;;;16.35;4.15;;;;;;;20.69;63.88;102046.25;10457008;28;20041;-72
2022/05/14 11:48:12;;;;;;;18.42;3.83;;;;;;;21.15;64.25;102051.34;10497033;28;20036;-74
2022/05/14 11:53:15;;;;;;;17.77;3.95;;;;;;;22.17;59.96;102034.28;10480387;28;20056;-74
2022/05/14 11:58:43;;;;;;;17.80;4.00;;;;;;;23.59;59.42;102036.75;10498452;28;20041;-73
2022/05/14 12:03:44;;;;;;;15.90;4.50;;;;;;;23.40;55.03;102009.59;10499313;28;20090;-75
2022/05/14 12:08:54;;;;;;;13.05;4.95;;;;;;;22.56;55.35;102010.66;10497584;28;20039;-73
2022/05/14 12:14:13;;;;;;;19.35;4.43;;;;;;;21.82;58.17;102047.72;10454679;28;20045;-74
2022/05/14 12:19:18;;;;;;;14.13;3.75;;;;;;;20.93;60.68;102053.81;10458914;28;20044;-72
2022/05/14 12:24:21;;;;;;;14.55;4.80;;;;;;;21.00;60.24;102047.88;10445162;28;20052;-74
2022/05/14 12:29:29;;;;;;;18.02;4.63;;;;;;;21.03;60.21;102034.13;10464364;28;20067;-72
2022/05/14 12:34:37;;;;;;;17.77;4.45;;;;;;;20.48;60.84;102042.75;10463174;28;20168;-73
2022/05/14 12:39:37;;;;;;;16.40;4.80;;;;;;;20.34;59.75;102037.00;10482112;28;20044;-74
2022/05/14 12:44:44;;;;;;;17.38;4.05;;;;;;;20.37;62.40;102055.16;10485103;28;20037;-73
2022/05/14 12:49:45;;;;;;;;;;;;;;;20.78;61.02;102051.19;10505123;28;20052;-73
2022/05/14 12:54:50;;;;;;;23.55;5.32;;;;;;;21.35;59.68;102043.81;10505459;28;19916;-74
2022/05/14 12:59:51;;;;;;;19.33;4.05;;;;;;;21.38;60.87;102043.25;10484028;28;20041;-73
2022/05/14 13:04:55;;;;;;;16.25;3.92;;;;;;;21.51;60.81;102042.53;10444567;28;20053;-73
2022/05/14 13:09:55;;;;;;;16.85;4.18;;;;;;;21.15;60.91;102045.75;10444913;28;20114;-73
2022/05/14 13:15:04;;;;;;;16.23;4.60;;;;;;;20.77;60.86;102055.94;10461270;28;20095;-73
2022/05/14 13:20:26;;;;;;;21.15;4.20;;;;;;;21.08;61.69;102050.84;10462794;28;20047;-73
2022/05/14 13:25:32;;;;;;;13.82;4.57;;;;;;;20.92;61.52;102055.81;10475061;28;20116;-76
2022/05/14 13:30:33;;;;;;;16.20;4.25;;;;;;;20.83;61.89;102045.53;10460896;28;20037;-72
2022/05/14 13:40:53;;;;;;;18.95;4.53;;;;;;;21.16;61.34;102036.19;10459797;28;20063;-75
2022/05/14 13:45:55;;;;;;;20.00;5.63;;;;;;;20.69;62.38;102048.19;10459607;28;20025;-73
2022/05/14 13:51:02;;;;;;;19.23;4.80;;;;;;;20.45;61.91;102045.31;10461401;28;20079;-73
2022/05/14 13:56:05;;;;;;;15.63;4.18;;;;;;;20.18;62.91;102048.59;10491127;28;20547;-73
2022/05/14 14:01:09;;;;;;;18.17;3.75;;;;;;;20.24;63.34;102053.03;10471134;28;20063;-75
2022/05/14 14:06:10;;;;;;;20.60;5.20;;;;;;;20.14;64.59;102062.31;10442598;28;20033;-73
2022/05/14 14:11:11;;;;;;;18.77;4.53;;;;;;;19.88;65.22;102056.88;10458984;28;20082;-71
2022/05/14 14:16:12;;;;;;;20.25;5.03;;;;;;;20.06;66.00;102057.34;10460715;28;20398;-72
2022/05/14 14:21:12;;;;;;;16.50;4.75;;;;;;;20.20;66.03;102058.38;10461780;28;20041;-72
2022/05/14 14:26:12;;;;;;;24.00;4.82;;;;;;;20.20;64.82;102047.19;10459308;28;20508;-73
2022/05/14 14:31:17;;;;;;;15.80;4.25;;;;;;;20.44;65.79;102061.22;10485473;28;20154;-72
2022/05/14 14:36:18;;;;;;;20.83;4.90;;;;;;;21.14;65.30;102049.66;10499050;28;20040;-72
2022/05/14 14:41:18;;;;;;;21.30;5.03;;;;;;;21.83;61.88;102043.78;10494895;28;20029;-73
2022/05/14 14:46:19;;;;;;;22.00;5.72;;;;;;;21.46;62.33;102045.41;10494903;28;20048;-73
2022/05/14 14:51:19;;;;;;;22.05;5.22;;;;;;;21.02;63.46;102046.44;10497392;28;20036;-73
2022/05/14 14:56:20;;;;;;;20.52;5.03;;;;;;;21.02;63.21;102046.44;10477613;28;20140;-72
2022/05/14 15:01:28;;;;;;;18.63;4.72;;;;;;;20.58;64.38;102052.19;10466321;28;20029;-73
2022/05/14 15:06:28;;;;;;;19.80;5.53;;;;;;;20.39;64.90;102046.47;10455946;28;20053;-73
2022/05/14 15:11:29;;;;;;;19.10;4.43;;;;;;;20.33;64.99;102043.72;10458019;28;20045;-73
2022/05/14 15:16:30;;;;;;;17.25;4.20;;;;;;;20.22;64.91;102053.31;10458670;28;20033;-72
2022/05/14 15:21:30;;;;;;;19.92;5.70;;;;;;;20.03;65.14;102035.56;10447625;28;20063;-72
2022/05/14 15:26:31;;;;;;;22.95;5.57;;;;;;;20.11;66.11;102058.16;10456832;28;20059;-71
2022/05/14 15:31:46;;;;;;;30.05;7.00;;;;;;;20.09;65.22;102056.75;10453503;28;20087;-74
2022/05/14 15:36:47;;;;;;;18.00;4.20;;;;;;;20.74;65.02;102053.75;10477905;28;20071;-73
2022/05/14 15:41:48;;;;;;;23.35;5.78;;;;;;;19.89;65.91;102013.84;10496725;28;20032;-71
2022/05/14 15:46:51;;;;;;;17.70;5.60;;;;;;;20.34;64.49;102042.59;10487702;28;20515;-71
2022/05/14 15:51:52;;;;;;;22.02;5.78;;;;;;;20.67;64.56;102056.91;10466854;28;20048;-72
2022/05/14 15:56:53;;;;;;;23.25;5.55;;;;;;;21.34;62.64;102036.56;10495088;28;20045;-72
2022/05/14 16:01:53;;;;;;;18.55;5.07;;;;;;;23.00;59.63;102028.09;10493582;28;20041;-72
2022/05/14 16:06:54;;;;;;;20.35;4.97;;;;;;;25.17;54.91;102013.03;10497713;28;20592;-73
2022/05/14 16:17:13;;;;;;;18.30;6.07;;;;;;;25.55;50.67;102001.22;10460356;28;20033;-73
2022/05/14 16:22:14;;;;;;;20.70;5.05;;;;;;;24.14;53.16;102017.75;10452873;28;20045;-73
2022/05/14 16:27:14;;;;;;;16.42;5.10;;;;;;;24.32;52.91;102015.88;10470967;28;20045;-73
2022/05/14 16:32:15;;;;;;;21.27;4.90;;;;;;;22.46;56.35;102033.28;10465499;28;20819;-73
2022/05/14 16:37:15;;;;;;;21.67;6.00;;;;;;;21.25;59.44;102044.81;10467793;28;20048;-72
2022/05/14 16:42:16;;;;;;;18.08;5.05;;;;;;;21.42;59.50;102055.53;10456119;28;20036;-72
2022/05/14 16:47:17;;;;;;;19.38;4.78;;;;;;;21.84;59.10;102056.66;10454737;28;20400;-73
2022/05/14 16:52:17;;;;;;;21.95;5.50;;;;;;;21.46;59.39;102050.19;10472601;28;20403;-74
2022/05/14 16:57:19;;;;;;;16.85;4.45;;;;;;;21.98;57.47;102055.91;10496292;28;20037;-73
2022/05/14 17:02:19;;;;;;;20.88;6.45;;;;;;;21.27;58.76;102052.88;10494826;28;20036;-72
2022/05/14 17:07:20;;;;;;;28.55;5.90;;;;;;;20.24;60.86;102065.06;10494920;28;20139;-70
2022/05/14 17:12:21;;;;;;;20.73;6.10;;;;;;;19.96;62.61;102059.06;10467786;28;20170;-72
2022/05/14 17:17:22;;;;;;;21.42;5.47;;;;;;;19.43;64.05;102069.94;10450774;28;20075;-74
2022/05/14 17:22:22;;;;;;;23.45;6.30;;;;;;;19.22;64.15;102066.38;10489875;28;20040;-74
2022/05/14 17:27:23;;;;;;;19.20;4.72;;;;;;;18.83;65.12;102069.84;10501773;28;20036;-74
2022/05/14 17:32:23;;;;;;;24.35;5.95;;;;;;;18.57;65.67;102077.34;10500961;28;20111;-73
2022/05/14 17:42:43;;;;;;;22.45;4.80;;;;;;;17.97;68.44;102090.09;10503042;28;20060;-73
2022/05/14 17:47:43;;;;;;;18.33;4.85;;;;;;;17.81;71.76;102101.16;10501278;28;20038;-72
2022/05/14 17:52:44;;;;;;;26.38;6.10;;;;;;;17.56;73.39;102101.88;10502886;28;20036;-73
2022/05/14 17:57:47;;;;;;;20.25;4.88;;;;;;;17.52;74.68;102100.75;10501367;28;20045;-74
2022/05/14 18:02:49;;;;;;;21.83;5.07;;;;;;;17.31;75.85;102110.97;10498218;28;20111;-74
2022/05/14 18:07:49;;;;;;;22.60;5.10;;;;;;;17.09;75.08;102100.78;10501579;28;20052;-72
2022/05/14 18:12:50;;;;;;;21.98;4.65;;;;;;;16.76;75.69;102104.69;10499845;28;20021;-73
2022/05/14 18:17:50;;;;;;;20.38;4.93;;;;;;;16.55;75.13;102107.31;10497340;28;20043;-73
2022/05/14 18:22:52;;;;;;;20.05;4.85;;;;;;;16.28;75.95;102107.34;10499916;28;20028;-74
2022/05/14 18:28:01;;;;;;;21.88;4.72;;;;;;;15.99;76.00;102103.16;10499741;28;20047;-74
2022/05/14 18:33:13;;;;;;;23.33;5.40;;;;;;;15.59;77.80;102096.00;10499229;28;20058;-73
2022/05/14 18:38:14;;;;;;;22.75;5.03;;;;;;;15.41;79.51;102111.00;10482349;28;20040;-73
2022/05/14 18:43:17;;;;;;;21.60;6.47;;;;;;;15.27;80.94;102121.63;10497256;28;20040;-74
2022/05/14 18:48:18;;;;;;;24.90;6.57;;;;;;;15.11;83.68;102134.44;10496825;28;20048;-73
2022/05/14 18:53:18;;;;;;;28.23;5.35;;;;;;;14.96;84.22;102123.13;10496297;28;20067;-74
2022/05/14 18:58:18;;;;;;;28.08;6.10;;;;;;;14.82;86.70;102130.94;10497864;28;20036;-73
2022/05/14 19:03:19;;;;;;;21.13;4.75;;;;;;;14.68;90.46;102136.81;10498091;28;20024;-73
2022/05/14 19:08:21;;;;;;;22.58;5.05;;;;;;;14.52;95.71;102140.38;10465665;28;20087;-72
2022/05/14 19:13:21;;;;;;;25.75;5.97;;;;;;;14.37;100.00;102145.66;10454303;28;20033;-73
2022/05/14 19:18:22;;;;;;;28.25;5.22;;;;;;;14.22;100.00;102147.06;10456046;28;20040;-76
2022/05/14 19:23:22;;;;;;;30.13;5.75;;;;;;;14.12;100.00;102150.47;10455963;28;20041;-73
2022/05/14 19:28:23;;;;;;;17.33;4.72;;;;;;;14.02;100.00;102152.19;10454874;28;20040;-73
2022/05/14 19:33:24;;;;;;;26.20;5.65;;;;;;;13.90;100.00;102155.81;10456556;28;20048;-72
2022/05/14 19:38:26;;;;;;;26.48;5.22;;;;;;;13.80;100.00;102161.16;10456485;28;20044;-72
2022/05/14 19:43:41;;;;;;;26.63;7.30;;;;;;;13.60;100.00;102157.94;10436640;28;20041;-72
2022/05/14 19:48:42;;;;;;;19.05;4.97;;;;;;;13.44;100.00;102165.06;10475339;28;20048;-73
2022/05/14 19:53:44;;;;;;;26.13;6.90;;;;;;;13.29;100.00;102162.78;10478278;28;20032;-72
2022/05/14 19:58:45;;;;;;;35.63;5.72;;;;;;;13.09;100.00;102150.13;10478754;28;20115;-73
2022/05/14 20:03:45;;;;;;;20.50;4.45;;;;;;;13.06;100.00;102164.44;10498225;28;20032;-73
2022/05/14 20:08:46;;;;;;;21.35;5.00;;;;;;;12.42;100.00;102074.97;10496780;28;20098;-73
2022/05/14 20:13:46;;;;;;;21.48;4.93;;;;;;;12.83;100.00;102164.41;10495912;28;20039;-73
2022/05/14 20:24:06;;;;;;;31.05;5.55;;;;;;;12.49;100.00;102153.88;10496042;28;20033;-73
2022/05/14 20:29:07;;;;;;;24.75;5.47;;;;;;;12.42;100.00;102166.97;10482690;28;20126;-73
2022/05/14 20:34:08;;;;;;;26.88;5.45;;;;;;;12.23;100.00;102166.16;10472111;28;20049;-73
2022/05/14 20:39:08;;;;;;;30.98;5.90;;;;;;;12.06;100.00;102182.53;10456230;28;20533;-73
2022/05/14 20:44:09;;;;;;;28.70;6.43;;;;;;;11.93;100.00;102181.84;10496021;28;20052;-73
2022/05/14 20:49:09;;;;;;;21.23;5.43;;;;;;;11.77;100.00;102184.13;10503267;28;20040;-74
2022/05/14 20:54:10;;;;;;;25.27;5.78;;;;;;;11.63;100.00;102194.47;10502883;28;20436;-72
2022/05/14 20:59:10;;;;;;;29.45;6.45;;;;;;;11.52;100.00;102203.53;10503814;28;20056;-72
2022/05/14 21:04:11;;;;;;;24.02;5.80;;;;;;;11.41;100.00;102202.38;10503647;28;20063;-73
2022/05/14 21:09:12;;;;;;;30.42;6.35;;;;;;;11.25;100.00;102202.94;10494498;28;20090;-70
2022/05/14 21:14:12;;;;;;;30.75;6.82;;;;;;;11.11;100.00;102197.53;10502878;28;20075;-72
2022/05/14 21:19:17;;;;;;;31.73;6.82;;;;;;;10.98;100.00;102203.16;10502462;28;20456;-73
2022/05/14 21:24:21;;;;;;;20.58;5.22;;;;;;;10.88;100.00;102202.81;10501372;28;20499;-73
2022/05/14 21:29:21;;;;;;;20.17;5.63;;;;;;;10.76;100.00;102210.13;10490737;28;20041;-72
2022/05/14 21:39:41;;;;;;;27.70;6.40;;;;;;;10.62;100.00;102198.34;10502698;28;20075;-73
2022/05/14 21:44:42;;;;;;;29.88;7.88;;;;;;;10.56;100.00;102205.56;10483840;28;20506;-72
2022/05/14 21:49:42;;;;;;;23.48;6.47;;;;;;;10.49;100.00;102204.78;10492199;28;20502;-73
2022/05/14 21:54:43;;;;;;;29.33;6.18;;;;;;;10.43;100.00;102205.69;10501927;28;20545;-73
2022/05/14 21:59:44;;;;;;;16.42;5.30;;;;;;;10.37;100.00;102207.38;10461270;28;20044;-73
2022/05/14 22:04:47;;;;;;;28.73;5.65;;;;;;;10.31;100.00;102208.28;10474451;28;20048;-74
2022/05/14 22:09:47;;;;;;;25.20;5.93;;;;;;;10.24;100.00;102207.44;10458694;28;20029;-73
2022/05/14 22:14:53;;;;;;;29.50;7.00;;;;;;;10.16;100.00;102202.19;10460184;28;20036;-73
2022/05/14 22:19:53;;;;;;;29.85;6.25;;;;;;;10.07;100.00;102205.19;10460316;28;20036;-73
2022/05/14 22:24:54;;;;;;;24.23;6.28;;;;;;;10.01;100.00;102219.81;10461604;28;20037;-72
2022/05/14 22:29:54;;;;;;;28.05;6.57;;;;;;;9.95;100.00;102215.19;10467043;28;20070;-73
2022/05/14 22:34:55;;;;;;;24.73;5.60;;;;;;;9.90;100.00;102217.72;10500475;28;20037;-74
2022/05/14 22:45:17;;;;;;;26.88;6.13;;;;;;;9.77;100.00;102218.63;10500703;28;20032;-71
2022/05/14 22:50:17;;;;;;;26.17;5.90;;;;;;;9.69;100.00;102216.09;10501501;28;20515;-72
2022/05/14 22:55:18;;;;;;;25.63;8.57;;;;;;;9.59;100.00;102215.72;10500813;28;20043;-73
2022/05/14 23:00:20;;;;;;;30.17;5.90;;;;;;;9.51;100.00;102211.31;10499253;28;20048;-73
2022/05/14 23:05:20;;;;;;;26.88;6.20;;;;;;;9.43;100.00;102206.88;10498094;28;20029;-74
2022/05/14 23:10:21;;;;;;;22.45;6.28;;;;;;;9.38;100.00;102203.91;10499598;28;20028;-73
2022/05/14 23:15:22;;;;;;;21.35;6.63;;;;;;;9.31;100.00;102197.59;10499958;28;20036;-73
2022/05/14 23:20:24;;;;;;;24.80;6.03;;;;;;;9.27;100.00;102196.31;10500545;28;20028;-73
2022/05/14 23:25:29;;;;;;;29.00;6.68;;;;;;;9.18;100.00;102192.13;10497944;28;20186;-72
2022/05/14 23:30:30;;;;;;;31.08;7.95;;;;;;;9.08;100.00;102198.88;10498306;28;20098;-73
2022/05/14 23:35:32;;;;;;;30.45;8.10;;;;;;;8.99;100.00;102205.66;10498877;28;20041;-72
2022/05/14 23:40:33;;;;;;;26.73;6.57;;;;;;;8.95;100.00;102198.00;10497435;28;20059;-73
2022/05/14 23:45:33;;;;;;;23.33;6.32;;;;;;;8.85;100.00;102192.97;10498982;28;20090;-71
2022/05/14 23:50:34;;;;;;;25.65;6.35;;;;;;;8.79;100.00;102197.38;10500085;28;20032;-71